createdAt,value
2023-05-21T00:00:37.858Z,8.20
2023-05-21T00:01:38.063Z,9.00
2023-05-21T00:02:38.410Z,8.50
2023-05-21T00:03:38.472Z,8.20
2023-05-21T00:04:38.556Z,7.90
2023-05-21T00:05:38.928Z,8.10
2023-05-21T00:06:38.979Z,8.40
2023-05-21T00:07:39.088Z,8.50
2023-05-21T00:08:39.234Z,8.40
2023-05-21T00:09:39.454Z,8.60
2023-05-21T00:10:39.620Z,8.70
2023-05-21T00:11:39.780Z,8.60
2023-05-21T00:12:39.935Z,8.40
2023-05-21T00:13:40.106Z,8.90
2023-05-21T00:14:40.320Z,7.90
2023-05-21T00:15:40.486Z,8.60
2023-05-21T00:16:40.665Z,8.40
2023-05-21T00:17:40.882Z,8.70
2023-05-21T00:18:41.019Z,9.00
2023-05-21T00:19:41.139Z,8.60
2023-05-21T00:20:41.332Z,9.60
2023-05-21T00:21:41.542Z,8.80
2023-05-21T00:22:41.681Z,8.80
2023-05-21T00:23:41.879Z,9.50
2023-05-21T00:24:42.053Z,8.50
2023-05-21T00:25:42.239Z,8.90
2023-05-21T00:26:42.372Z,8.70
2023-05-21T00:27:42.577Z,8.80
2023-05-21T00:28:42.734Z,8.60
2023-05-21T00:29:44.215Z,9.00
2023-05-21T00:30:43.128Z,8.20
2023-05-21T00:31:43.322Z,8.70
2023-05-21T00:32:43.521Z,8.90
2023-05-21T00:33:43.594Z,9.20
2023-05-21T00:34:43.786Z,9.10
2023-05-21T00:35:43.948Z,8.90
2023-05-21T00:36:44.130Z,9.20
2023-05-21T00:37:44.340Z,8.70
2023-05-21T00:38:44.512Z,9.10
2023-05-21T00:39:44.676Z,8.80
2023-05-21T00:40:44.853Z,9.40
2023-05-21T00:41:45.063Z,9.00
2023-05-21T00:42:45.224Z,8.90
2023-05-21T00:43:45.381Z,8.70
2023-05-21T00:44:45.623Z,9.00
2023-05-21T00:45:45.793Z,8.80
2023-05-21T00:46:45.939Z,9.00
2023-05-21T00:47:46.141Z,8.80
2023-05-21T00:48:46.224Z,8.80
2023-05-21T00:49:46.384Z,9.30
2023-05-21T00:50:46.566Z,9.10
2023-05-21T00:51:46.749Z,9.00
2023-05-21T00:52:46.893Z,9.70
2023-05-21T00:53:47.106Z,9.00
2023-05-21T00:54:47.257Z,9.20
2023-05-21T00:55:47.440Z,9.30
2023-05-21T00:56:47.653Z,9.40
2023-05-21T00:57:47.802Z,9.10
2023-05-21T00:58:48.009Z,8.70
2023-05-21T00:59:48.143Z,9.50
2023-05-21T01:00:48.331Z,9.20
2023-05-21T01:01:48.598Z,9.30
2023-05-21T01:02:48.800Z,9.80
2023-05-21T01:03:49.028Z,9.10
2023-05-21T01:04:49.050Z,9.00
2023-05-21T01:05:49.188Z,9.10
2023-05-21T01:06:49.405Z,9.60
2023-05-21T01:07:49.557Z,9.70
2023-05-21T01:08:49.755Z,9.50
2023-05-21T01:09:49.907Z,9.40
2023-05-21T01:10:50.099Z,9.60
2023-05-21T01:11:50.267Z,9.40
2023-05-21T01:12:50.418Z,9.40
2023-05-21T01:13:50.616Z,9.30
2023-05-21T01:14:50.790Z,8.80
2023-05-21T01:15:50.925Z,9.60
2023-05-21T01:16:51.167Z,9.40
2023-05-21T01:17:51.321Z,9.20
2023-05-21T01:18:51.553Z,9.30
2023-05-21T01:19:51.666Z,9.30
2023-05-21T01:20:51.838Z,9.40
2023-05-21T01:21:52.034Z,9.80
2023-05-21T01:22:52.198Z,9.80
2023-05-21T01:23:52.356Z,9.80
2023-05-21T01:24:52.532Z,9.30
2023-05-21T01:25:52.703Z,9.60
2023-05-21T01:26:52.855Z,9.50
2023-05-21T01:27:53.073Z,9.80
2023-05-21T01:28:53.226Z,9.50
2023-05-21T01:29:53.378Z,9.20
2023-05-21T01:30:53.538Z,9.60
2023-05-21T01:31:53.693Z,9.80
2023-05-21T01:32:53.975Z,9.40
2023-05-21T01:33:54.117Z,9.50
2023-05-21T01:34:54.229Z,9.00
2023-05-21T01:35:54.393Z,9.40
2023-05-21T01:36:54.552Z,9.70
2023-05-21T01:37:54.701Z,9.80
2023-05-21T01:38:54.899Z,9.30
2023-05-21T01:39:55.068Z,9.00
2023-05-21T01:40:55.227Z,9.90
2023-05-21T01:41:55.404Z,10.10
2023-05-21T01:42:55.590Z,9.70
2023-05-21T01:43:55.739Z,9.60
2023-05-21T01:44:55.939Z,9.70
2023-05-21T01:45:56.137Z,9.30
2023-05-21T01:46:56.310Z,10.20
2023-05-21T01:47:56.623Z,9.90
2023-05-21T01:48:56.649Z,9.40
2023-05-21T01:49:56.819Z,10.10
2023-05-21T01:50:56.978Z,9.90
2023-05-21T01:51:57.130Z,9.90
2023-05-21T01:52:57.326Z,9.80
2023-05-21T01:53:57.484Z,9.60
2023-05-21T01:54:57.643Z,9.70
2023-05-21T01:55:57.816Z,9.80
2023-05-21T01:56:58.005Z,9.80
2023-05-21T01:57:59.415Z,10.00
2023-05-21T01:58:58.325Z,9.60
2023-05-21T01:59:58.509Z,9.80
2023-05-21T02:00:58.768Z,9.50
2023-05-21T02:01:58.921Z,9.90
2023-05-21T02:02:59.210Z,9.50
2023-05-21T02:03:59.342Z,9.70
2023-05-21T02:04:59.401Z,10.30
2023-05-21T02:05:59.577Z,9.80
2023-05-21T02:06:59.753Z,10.00
2023-05-21T02:08:00.000Z,9.60
2023-05-21T02:09:00.145Z,9.50
2023-05-21T02:10:00.249Z,9.50
2023-05-21T02:11:00.416Z,9.50
2023-05-21T02:12:00.576Z,9.80
2023-05-21T02:13:00.737Z,10.10
2023-05-21T02:14:00.914Z,10.40
2023-05-21T02:15:01.082Z,10.10
2023-05-21T02:16:01.279Z,9.80
2023-05-21T02:17:01.451Z,9.70
2023-05-21T02:18:01.642Z,9.90
2023-05-21T02:19:01.868Z,9.90
2023-05-21T02:20:01.969Z,10.60
2023-05-21T02:21:02.140Z,10.10
2023-05-21T02:22:02.311Z,10.40
2023-05-21T02:23:02.505Z,9.90
2023-05-21T02:24:02.695Z,9.80
2023-05-21T02:25:02.831Z,10.00
2023-05-21T02:26:02.993Z,9.70
2023-05-21T02:27:03.162Z,10.60
2023-05-21T02:28:03.328Z,10.60
2023-05-21T02:29:03.508Z,10.90
2023-05-21T02:30:03.674Z,10.30
2023-05-21T02:31:03.847Z,10.30
2023-05-21T02:32:04.018Z,10.50
2023-05-21T02:33:04.215Z,10.50
2023-05-21T02:34:04.450Z,10.30
2023-05-21T02:35:04.558Z,10.60
2023-05-21T02:36:04.736Z,10.50
2023-05-21T02:37:04.921Z,10.50
2023-05-21T02:38:05.099Z,10.00
2023-05-21T02:39:05.286Z,10.30
2023-05-21T02:40:05.425Z,10.20
2023-05-21T02:41:05.585Z,10.10
2023-05-21T02:42:05.757Z,10.20
2023-05-21T02:43:05.965Z,10.70
2023-05-21T02:44:06.117Z,10.00
2023-05-21T02:45:06.269Z,10.20
2023-05-21T02:46:06.459Z,10.90
2023-05-21T02:47:06.666Z,10.30
2023-05-21T02:48:06.843Z,10.60
2023-05-21T02:49:06.983Z,10.90
2023-05-21T02:50:07.140Z,10.20
2023-05-21T02:51:07.346Z,10.30
2023-05-21T02:52:07.511Z,10.70
2023-05-21T02:53:07.669Z,10.30
2023-05-21T02:54:07.829Z,10.80
2023-05-21T02:55:08.009Z,10.80
2023-05-21T02:56:08.155Z,11.00
2023-05-21T02:57:08.358Z,10.80
2023-05-21T02:58:08.503Z,10.10
2023-05-21T02:59:08.680Z,10.20
2023-05-21T03:00:08.849Z,11.30
2023-05-21T03:01:09.055Z,10.30
2023-05-21T03:02:09.226Z,10.20
2023-05-21T03:03:09.467Z,10.40
2023-05-21T03:04:09.539Z,10.40
2023-05-21T03:05:09.732Z,10.90
2023-05-21T03:06:09.864Z,10.60
2023-05-21T03:07:10.043Z,11.10
2023-05-21T03:08:10.231Z,9.80
2023-05-21T03:09:10.413Z,10.80
2023-05-21T03:10:10.558Z,10.50
2023-05-21T03:11:10.735Z,11.80
2023-05-21T03:12:10.886Z,11.00
2023-05-21T03:13:11.102Z,10.90
2023-05-21T03:14:11.227Z,10.50
2023-05-21T03:15:11.428Z,10.50
2023-05-21T03:16:11.660Z,11.50
2023-05-21T03:17:11.803Z,12.00
2023-05-21T03:18:12.018Z,10.60
2023-05-21T03:19:12.154Z,11.40
2023-05-21T03:20:12.267Z,10.80
2023-05-21T03:21:12.455Z,10.50
2023-05-21T03:22:12.659Z,10.50
2023-05-21T03:23:15.573Z,10.40
2023-05-21T03:24:13.016Z,10.50
2023-05-21T03:25:13.230Z,11.20
2023-05-21T03:26:13.388Z,10.70
2023-05-21T03:27:13.547Z,11.50
2023-05-21T03:28:13.698Z,10.40
2023-05-21T03:29:13.898Z,10.90
2023-05-21T03:30:14.070Z,11.10
2023-05-21T03:31:14.265Z,10.60
2023-05-21T03:32:14.639Z,11.30
2023-05-21T03:33:14.616Z,11.00
2023-05-21T03:34:14.781Z,11.20
2023-05-21T03:35:14.939Z,11.30
2023-05-21T03:36:15.108Z,11.00
2023-05-21T03:37:15.278Z,11.70
2023-05-21T03:38:15.451Z,11.40
2023-05-21T03:39:15.598Z,11.30
2023-05-21T03:40:15.752Z,11.30
2023-05-21T03:41:15.948Z,11.80
2023-05-21T03:42:16.112Z,11.40
2023-05-21T03:43:16.290Z,11.10
2023-05-21T03:44:16.486Z,11.60
2023-05-21T03:45:16.615Z,10.90
2023-05-21T03:46:16.843Z,11.80
2023-05-21T03:47:16.981Z,11.50
2023-05-21T03:48:17.122Z,12.00
2023-05-21T03:49:17.285Z,11.50
2023-05-21T03:50:17.448Z,11.30
2023-05-21T03:51:17.628Z,12.60
2023-05-21T03:52:17.810Z,11.20
2023-05-21T03:53:18.000Z,11.10
2023-05-21T03:54:18.168Z,11.30
2023-05-21T03:55:18.387Z,11.40
2023-05-21T03:56:18.500Z,11.60
2023-05-21T03:57:18.670Z,11.50
2023-05-21T03:58:18.833Z,11.80
2023-05-21T03:59:19.015Z,11.30
2023-05-21T04:00:19.168Z,12.60
2023-05-21T04:01:19.330Z,12.70
2023-05-21T04:02:19.545Z,12.30
2023-05-21T04:03:19.829Z,11.60
2023-05-21T04:04:19.850Z,11.70
2023-05-21T04:05:20.018Z,11.80
2023-05-21T04:06:20.173Z,11.80
2023-05-21T04:07:20.359Z,11.70
2023-05-21T04:08:20.521Z,12.30
2023-05-21T04:09:20.675Z,12.20
2023-05-21T04:10:20.883Z,11.80
2023-05-21T04:11:21.031Z,12.50
2023-05-21T04:12:21.213Z,11.40
2023-05-21T04:13:21.362Z,13.00
2023-05-21T04:14:21.527Z,11.80
2023-05-21T04:15:21.724Z,12.60
2023-05-21T04:16:21.868Z,13.30
2023-05-21T04:17:22.110Z,12.20
2023-05-21T04:18:22.211Z,12.40
2023-05-21T04:19:22.392Z,11.40
2023-05-21T04:20:22.520Z,12.80
2023-05-21T04:21:22.721Z,12.60
2023-05-21T04:22:22.886Z,11.70
2023-05-21T04:23:23.075Z,12.10
2023-05-21T04:24:23.223Z,12.20
2023-05-21T04:25:23.402Z,12.60
2023-05-21T04:26:23.561Z,12.90
2023-05-21T04:27:23.754Z,12.90
2023-05-21T04:28:23.939Z,12.80
2023-05-21T04:29:24.092Z,12.80
2023-05-21T04:30:24.256Z,12.40
2023-05-21T04:31:24.489Z,11.80
2023-05-21T04:32:24.623Z,12.30
2023-05-21T04:33:24.779Z,12.50
2023-05-21T04:34:24.935Z,12.60
2023-05-21T04:35:25.114Z,12.50
2023-05-21T04:36:25.271Z,12.20
2023-05-21T04:37:25.463Z,13.20
2023-05-21T04:38:25.634Z,13.10
2023-05-21T04:39:25.780Z,12.20
2023-05-21T04:40:25.970Z,12.10
2023-05-21T04:41:26.126Z,13.10
2023-05-21T04:42:26.311Z,12.70
2023-05-21T04:43:26.676Z,13.00
2023-05-21T04:44:26.661Z,12.70
2023-05-21T04:45:26.814Z,13.00
2023-05-21T04:46:27.033Z,12.40
2023-05-21T04:47:27.176Z,12.90
2023-05-21T04:48:27.350Z,12.70
2023-05-21T04:49:27.488Z,12.70
2023-05-21T04:50:27.658Z,12.10
2023-05-21T04:51:27.823Z,13.30
2023-05-21T04:52:27.998Z,13.50
2023-05-21T04:53:28.138Z,13.60
2023-05-21T04:54:28.327Z,12.60
2023-05-21T04:55:28.473Z,13.20
2023-05-21T04:56:28.669Z,13.20
2023-05-21T04:57:28.839Z,12.90
2023-05-21T04:58:29.000Z,12.90
2023-05-21T04:59:29.145Z,13.20
2023-05-21T05:00:29.338Z,11.90
2023-05-21T05:01:29.635Z,13.20
2023-05-21T05:02:29.683Z,13.00
2023-05-21T05:03:29.881Z,12.80
2023-05-21T05:04:29.994Z,13.00
2023-05-21T05:05:30.154Z,12.70
2023-05-21T05:06:30.329Z,12.70
2023-05-21T05:07:30.512Z,13.40
2023-05-21T05:08:30.679Z,13.60
2023-05-21T05:09:30.821Z,13.50
2023-05-21T05:10:31.014Z,13.20
2023-05-21T05:11:31.158Z,13.20
2023-05-21T05:12:31.323Z,12.90
2023-05-21T05:13:31.494Z,12.80
2023-05-21T05:14:31.654Z,12.30
2023-05-21T05:15:31.803Z,13.00
2023-05-21T05:16:31.994Z,13.10
2023-05-21T05:17:32.175Z,14.20
2023-05-21T05:18:32.334Z,13.60
2023-05-21T05:19:32.546Z,13.60
2023-05-21T05:20:32.663Z,12.90
2023-05-21T05:21:32.816Z,13.50
2023-05-21T05:22:33.016Z,13.40
2023-05-21T05:23:33.190Z,13.40
2023-05-21T05:24:33.349Z,12.70
2023-05-21T05:25:33.488Z,13.90
2023-05-21T05:26:33.679Z,13.90
2023-05-21T05:27:35.061Z,14.10
2023-05-21T05:28:34.009Z,14.10
2023-05-21T05:29:34.164Z,13.80
2023-05-21T05:30:34.381Z,14.00
2023-05-21T05:31:34.569Z,13.70
2023-05-21T05:32:34.691Z,13.00
2023-05-21T05:33:34.844Z,14.00
2023-05-21T05:34:35.028Z,14.60
2023-05-21T05:35:35.382Z,14.30
2023-05-21T05:36:35.383Z,14.10
2023-05-21T05:37:35.516Z,13.60
2023-05-21T05:38:35.674Z,14.10
2023-05-21T05:39:35.870Z,14.40
2023-05-21T05:40:36.022Z,14.20
2023-05-21T05:41:36.197Z,14.30
2023-05-21T05:42:36.365Z,14.50
2023-05-21T05:43:36.524Z,13.80
2023-05-21T05:44:36.704Z,13.50
2023-05-21T05:45:37.081Z,13.80
2023-05-21T05:46:37.149Z,14.80
2023-05-21T05:47:37.229Z,13.90
2023-05-21T05:48:37.393Z,14.00
2023-05-21T05:49:37.541Z,14.00
2023-05-21T05:50:37.725Z,13.60
2023-05-21T05:51:37.903Z,13.80
2023-05-21T05:52:38.052Z,13.90
2023-05-21T05:53:38.215Z,14.10
2023-05-21T05:54:38.384Z,14.30
2023-05-21T05:55:38.808Z,14.10
2023-05-21T05:56:38.726Z,14.40
2023-05-21T05:57:38.907Z,13.90
2023-05-21T05:58:39.057Z,14.20
2023-05-21T05:59:39.217Z,14.40
2023-05-21T06:00:39.401Z,14.20
2023-05-21T06:01:39.573Z,14.70
2023-05-21T06:02:39.808Z,14.40
2023-05-21T06:03:40.040Z,14.20
2023-05-21T06:04:40.070Z,14.40
2023-05-21T06:05:40.607Z,14.30
2023-05-21T06:06:40.427Z,14.00
2023-05-21T06:07:40.574Z,14.20
2023-05-21T06:08:40.774Z,14.50
2023-05-21T06:09:40.916Z,14.40
2023-05-21T06:10:41.109Z,14.90
2023-05-21T06:11:41.289Z,13.70
2023-05-21T06:12:41.437Z,14.40
2023-05-21T06:13:41.609Z,14.30
2023-05-21T06:14:43.146Z,14.10
2023-05-21T06:15:41.965Z,13.90
2023-05-21T06:16:42.158Z,14.60
2023-05-21T06:17:42.297Z,14.80
2023-05-21T06:18:42.481Z,14.40
2023-05-21T06:19:42.593Z,14.20
2023-05-21T06:20:42.795Z,14.80
2023-05-21T06:21:42.941Z,14.20
2023-05-21T06:22:43.106Z,15.10
2023-05-21T06:23:43.266Z,15.10
2023-05-21T06:24:43.419Z,14.60
2023-05-21T06:25:43.578Z,14.90
2023-05-21T06:26:43.804Z,14.90
2023-05-21T06:27:43.920Z,14.90
2023-05-21T06:28:44.075Z,14.70
2023-05-21T06:29:44.237Z,14.40
2023-05-21T06:30:44.439Z,15.20
2023-05-21T06:31:44.622Z,14.80
2023-05-21T06:32:44.859Z,14.70
2023-05-21T06:33:45.086Z,14.70
2023-05-21T06:34:45.104Z,15.00
2023-05-21T06:35:45.257Z,14.40
2023-05-21T06:36:45.427Z,14.10
2023-05-21T06:37:45.585Z,14.60
2023-05-21T06:38:45.777Z,15.00
2023-05-21T06:39:45.931Z,15.10
2023-05-21T06:40:46.086Z,14.40
2023-05-21T06:41:46.242Z,14.50
2023-05-21T06:42:46.431Z,14.40
2023-05-21T06:43:46.589Z,15.00
2023-05-21T06:44:46.794Z,14.50
2023-05-21T06:45:46.951Z,14.30
2023-05-21T06:46:47.119Z,14.20
2023-05-21T06:47:47.299Z,14.50
2023-05-21T06:48:47.445Z,15.10
2023-05-21T06:49:47.610Z,14.80
2023-05-21T06:50:47.789Z,15.00
2023-05-21T06:51:47.967Z,14.60
2023-05-21T06:52:48.126Z,15.20
2023-05-21T06:53:48.282Z,14.30
2023-05-21T06:54:48.467Z,14.60
2023-05-21T06:55:48.640Z,15.30
2023-05-21T06:56:48.880Z,14.80
2023-05-21T06:57:48.953Z,15.00
2023-05-21T06:58:49.118Z,15.20
2023-05-21T06:59:49.321Z,15.20
2023-05-21T07:00:49.505Z,14.50
2023-05-21T07:01:49.656Z,14.20
2023-05-21T07:02:49.894Z,15.60
2023-05-21T07:03:49.977Z,15.00
2023-05-21T07:04:50.157Z,14.70
2023-05-21T07:05:50.320Z,14.70
2023-05-21T07:06:50.488Z,14.90
2023-05-21T07:07:50.647Z,14.50
2023-05-21T07:08:50.848Z,14.80
2023-05-21T07:09:50.997Z,14.70
2023-05-21T07:10:51.200Z,14.60
2023-05-21T07:11:51.336Z,14.80
2023-05-21T07:12:51.534Z,14.70
2023-05-21T07:13:51.689Z,14.90
2023-05-21T07:14:51.883Z,13.80
2023-05-21T07:15:52.033Z,14.80
2023-05-21T07:16:52.444Z,15.00
2023-05-21T07:17:52.419Z,15.50
2023-05-21T07:18:52.623Z,15.00
2023-05-21T07:19:52.739Z,14.80
2023-05-21T07:20:52.907Z,15.20
2023-05-21T07:21:53.064Z,14.40
2023-05-21T07:22:53.236Z,14.80
2023-05-21T07:23:53.377Z,14.80
2023-05-21T07:24:53.578Z,14.50
2023-05-21T07:25:53.728Z,14.60
2023-05-21T07:26:53.888Z,14.00
2023-05-21T07:27:54.186Z,14.30
2023-05-21T07:28:54.236Z,14.30
2023-05-21T07:29:54.427Z,13.50
2023-05-21T07:30:54.634Z,14.40
2023-05-21T07:31:54.739Z,14.50
2023-05-21T07:32:54.941Z,14.50
2023-05-21T07:33:55.064Z,14.50
2023-05-21T07:34:55.221Z,14.90
2023-05-21T07:35:55.384Z,13.70
2023-05-21T07:36:55.542Z,14.10
2023-05-21T07:37:55.772Z,15.00
2023-05-21T07:38:55.895Z,14.30
2023-05-21T07:39:56.042Z,14.10
2023-05-21T07:40:56.204Z,14.40
2023-05-21T07:41:56.352Z,14.00
2023-05-21T07:42:56.529Z,13.70
2023-05-21T07:43:56.725Z,14.30
2023-05-21T07:44:56.889Z,14.10
2023-05-21T07:45:57.044Z,14.30
2023-05-21T07:46:57.218Z,13.90
2023-05-21T07:47:57.426Z,14.20
2023-05-21T07:48:57.587Z,14.40
2023-05-21T07:49:57.714Z,13.80
2023-05-21T07:50:57.911Z,14.60
2023-05-21T07:51:58.072Z,14.30
2023-05-21T07:52:58.298Z,15.00
2023-05-21T07:53:58.401Z,14.20
2023-05-21T07:54:58.571Z,14.50
2023-05-21T07:55:58.732Z,14.10
2023-05-21T07:56:58.940Z,14.60
2023-05-21T07:57:59.059Z,14.50
2023-05-21T07:58:59.251Z,13.60
2023-05-21T07:59:59.402Z,13.70
2023-05-21T08:00:59.573Z,13.80
2023-05-21T08:01:59.749Z,13.10
2023-05-21T08:02:59.984Z,13.40
2023-05-21T08:04:00.235Z,13.30
2023-05-21T08:05:00.268Z,13.20
2023-05-21T08:06:00.390Z,13.00
2023-05-21T08:07:00.623Z,13.50
2023-05-21T08:08:00.765Z,13.70
2023-05-21T08:09:00.908Z,13.40
2023-05-21T08:10:02.675Z,13.70
2023-05-21T08:11:01.270Z,13.20
2023-05-21T08:12:01.430Z,13.00
2023-05-21T08:13:01.565Z,12.90
2023-05-21T08:14:01.749Z,13.00
2023-05-21T08:15:01.928Z,12.90
2023-05-21T08:16:02.168Z,13.00
2023-05-21T08:17:02.276Z,13.70
2023-05-21T08:18:02.511Z,13.40
2023-05-21T08:19:02.721Z,12.70
2023-05-21T08:20:02.756Z,12.60
2023-05-21T08:21:02.959Z,12.90
2023-05-21T08:22:03.133Z,13.50
2023-05-21T08:23:03.257Z,12.70
2023-05-21T08:24:03.450Z,12.80
2023-05-21T08:25:03.624Z,11.90
2023-05-21T08:26:03.764Z,12.00
2023-05-21T08:27:04.000Z,11.90
2023-05-21T08:28:04.119Z,12.30
2023-05-21T08:29:04.311Z,12.70
2023-05-21T08:30:04.463Z,12.20
2023-05-21T08:31:04.639Z,12.20
2023-05-21T08:32:04.836Z,12.20
2023-05-21T08:33:04.984Z,11.80
2023-05-21T08:34:05.145Z,11.80
2023-05-21T08:35:05.307Z,11.60
2023-05-21T08:36:05.461Z,12.20
2023-05-21T08:37:05.648Z,11.80
2023-05-21T08:38:05.800Z,12.40
2023-05-21T08:39:05.978Z,11.90
2023-05-21T08:40:06.160Z,12.20
2023-05-21T08:41:06.293Z,12.30
2023-05-21T08:42:06.480Z,12.20
2023-05-21T08:43:06.634Z,12.00
2023-05-21T08:44:06.791Z,12.50
2023-05-21T08:45:07.035Z,12.10
2023-05-21T08:46:07.137Z,12.80
2023-05-21T08:47:07.326Z,12.40
2023-05-21T08:48:07.549Z,13.10
2023-05-21T08:49:07.646Z,12.20
2023-05-21T08:50:07.819Z,12.10
2023-05-21T08:51:08.002Z,12.60
2023-05-21T08:52:08.162Z,13.00
2023-05-21T08:53:16.042Z,13.00
2023-05-21T08:54:09.478Z,13.50
2023-05-21T08:55:08.663Z,12.60
2023-05-21T08:56:08.826Z,13.40
2023-05-21T08:57:09.011Z,12.60
2023-05-21T08:58:09.164Z,13.00
2023-05-21T08:59:09.348Z,13.00
2023-05-21T09:00:09.530Z,12.30
2023-05-21T09:01:09.734Z,12.40
2023-05-21T09:02:09.890Z,12.30
2023-05-21T09:03:10.147Z,12.50
2023-05-21T09:04:20.132Z,12.50
2023-05-21T09:05:11.359Z,12.40
2023-05-21T09:06:10.550Z,12.30
2023-05-21T09:07:10.713Z,12.70
2023-05-21T09:08:10.936Z,12.00
2023-05-21T09:09:11.088Z,12.10
2023-05-21T09:10:11.276Z,12.40
2023-05-21T09:11:11.445Z,11.70
2023-05-21T09:12:11.592Z,12.50
2023-05-21T09:13:11.777Z,11.50
2023-05-21T09:14:11.989Z,11.90
2023-05-21T09:15:12.124Z,12.10
2023-05-21T09:16:12.308Z,11.10
2023-05-21T09:17:12.453Z,11.40
2023-05-21T09:18:12.730Z,11.80
2023-05-21T09:19:12.830Z,11.90
2023-05-21T09:20:12.978Z,12.00
2023-05-21T09:21:13.160Z,12.30
2023-05-21T09:22:13.299Z,11.50
2023-05-21T09:23:13.488Z,12.70
2023-05-21T09:24:13.634Z,12.30
2023-05-21T09:25:13.831Z,12.70
2023-05-21T09:26:14.011Z,11.80
2023-05-21T09:27:14.178Z,12.00
2023-05-21T09:28:14.332Z,11.90
2023-05-21T09:29:14.501Z,11.70
2023-05-21T09:30:14.698Z,12.00
2023-05-21T09:31:14.904Z,12.20
2023-05-21T09:32:15.026Z,11.60
2023-05-21T09:33:15.192Z,12.10
2023-05-21T09:34:15.384Z,11.50
2023-05-21T09:35:15.543Z,11.20
2023-05-21T09:36:15.723Z,11.20
2023-05-21T09:37:26.612Z,11.30
2023-05-21T09:38:17.064Z,11.50
2023-05-21T09:39:16.485Z,11.70
2023-05-21T09:40:16.360Z,11.20
2023-05-21T09:41:20.578Z,11.90
2023-05-21T09:42:17.743Z,11.30
2023-05-21T09:43:16.888Z,11.70
2023-05-21T09:44:17.101Z,11.20
2023-05-21T09:45:17.291Z,11.30
2023-05-21T09:46:17.440Z,10.60
2023-05-21T09:47:17.585Z,11.40
2023-05-21T09:48:17.781Z,11.40
2023-05-21T09:49:17.946Z,10.70
2023-05-21T09:50:18.164Z,10.00
2023-05-21T09:51:18.325Z,9.80
2023-05-21T09:52:18.441Z,10.10
2023-05-21T09:53:18.650Z,10.70
2023-05-21T09:54:18.792Z,9.30
2023-05-21T09:55:18.959Z,9.10
2023-05-21T09:56:19.148Z,9.40
2023-05-21T09:57:19.318Z,9.50
2023-05-21T09:58:19.501Z,9.00
2023-05-21T09:59:19.658Z,9.30
2023-05-21T10:00:19.828Z,9.30
2023-05-21T10:01:20.021Z,9.40
2023-05-21T10:02:20.297Z,8.90
2023-05-21T10:03:20.413Z,9.50
2023-05-21T10:04:20.561Z,9.00
2023-05-21T10:05:20.688Z,9.00
2023-05-21T10:06:20.853Z,9.20
2023-05-21T10:07:21.038Z,8.80
2023-05-21T10:08:21.202Z,8.80
2023-05-21T10:09:21.373Z,8.80
2023-05-21T10:10:21.553Z,8.70
2023-05-21T10:11:21.717Z,8.60
2023-05-21T10:12:21.894Z,8.30
2023-05-21T10:13:22.070Z,7.80
2023-05-21T10:14:22.252Z,8.20
2023-05-21T10:15:22.408Z,8.00
2023-05-21T10:16:22.625Z,7.90
2023-05-21T10:17:22.815Z,8.50
2023-05-21T10:18:22.968Z,8.80
2023-05-21T10:19:23.148Z,8.50
2023-05-21T10:20:23.322Z,8.20
2023-05-21T10:21:23.496Z,8.10
2023-05-21T10:22:23.667Z,8.00
2023-05-21T10:23:23.833Z,7.80
2023-05-21T10:24:23.999Z,8.10
2023-05-21T10:25:24.173Z,8.10
2023-05-21T10:26:24.365Z,8.10
2023-05-21T10:27:24.519Z,7.50
2023-05-21T10:28:24.693Z,7.50
2023-05-21T10:29:24.866Z,7.30
2023-05-21T10:30:25.039Z,8.00
2023-05-21T10:31:25.196Z,7.10
2023-05-21T10:32:25.419Z,7.70
2023-05-21T10:33:25.648Z,7.50
2023-05-21T10:34:25.724Z,7.30
2023-05-21T10:35:25.928Z,7.60
2023-05-21T10:36:26.108Z,7.30
2023-05-21T10:37:26.255Z,7.40
2023-05-21T10:38:26.441Z,7.30
2023-05-21T10:39:26.648Z,6.80
2023-05-21T10:40:26.833Z,7.10
2023-05-21T10:41:26.989Z,7.10
2023-05-21T10:42:27.161Z,6.90
2023-05-21T10:43:27.372Z,7.10
2023-05-21T10:44:27.542Z,7.30
2023-05-21T10:45:27.726Z,6.80
2023-05-21T10:46:27.912Z,7.40
2023-05-21T10:47:28.085Z,7.10
2023-05-21T10:48:28.215Z,7.40
2023-05-21T10:49:28.374Z,7.60
2023-05-21T10:50:28.553Z,6.60
2023-05-21T10:51:28.710Z,6.80
2023-05-21T10:52:28.877Z,6.60
2023-05-21T10:53:29.049Z,6.60
2023-05-21T10:54:29.219Z,7.00
2023-05-21T10:55:29.389Z,7.10
2023-05-21T10:56:29.591Z,6.70
2023-05-21T10:57:29.720Z,7.00
2023-05-21T10:58:30.221Z,7.10
2023-05-21T10:59:30.106Z,6.70
2023-05-21T11:00:30.259Z,7.00
2023-05-21T11:01:30.478Z,6.40
2023-05-21T11:02:30.735Z,7.00
2023-05-21T11:03:30.969Z,7.20
2023-05-21T11:04:30.990Z,6.70
2023-05-21T11:05:31.125Z,7.20
2023-05-21T11:06:31.352Z,6.90
2023-05-21T11:07:31.470Z,7.00
2023-05-21T11:08:31.676Z,6.80
2023-05-21T11:09:31.821Z,7.10
2023-05-21T11:10:32.018Z,6.70
2023-05-21T11:11:32.183Z,6.60
2023-05-21T11:12:32.323Z,7.20
2023-05-21T11:13:32.513Z,6.60
2023-05-21T11:14:32.706Z,6.60
2023-05-21T11:15:32.894Z,7.00
2023-05-21T11:16:33.062Z,6.90
2023-05-21T11:17:33.221Z,6.60
2023-05-21T11:18:33.396Z,7.10
2023-05-21T11:19:34.184Z,6.50
2023-05-21T11:20:33.794Z,6.80
2023-05-21T11:21:33.903Z,6.60
2023-05-21T11:22:34.086Z,6.60
2023-05-21T11:23:34.227Z,6.40
2023-05-21T11:24:34.463Z,6.40
2023-05-21T11:25:34.577Z,6.20
2023-05-21T11:26:34.760Z,6.90
2023-05-21T11:27:34.917Z,6.60
2023-05-21T11:28:35.077Z,6.40
2023-05-21T11:29:35.251Z,6.50
2023-05-21T11:30:36.230Z,6.20
2023-05-21T11:31:35.639Z,6.30
2023-05-21T11:32:35.803Z,6.20
2023-05-21T11:33:35.952Z,6.10
2023-05-21T11:34:36.162Z,6.30
2023-05-21T11:35:36.313Z,6.40
2023-05-21T11:36:36.502Z,6.50
2023-05-21T11:37:36.684Z,6.50
2023-05-21T11:38:36.868Z,6.50
2023-05-21T11:39:37.084Z,6.50
2023-05-21T11:40:37.529Z,6.50
2023-05-21T11:41:37.387Z,6.30
2023-05-21T11:42:37.555Z,5.80
2023-05-21T11:43:37.746Z,5.80
2023-05-21T11:44:37.936Z,6.00
2023-05-21T11:45:38.090Z,6.10
2023-05-21T11:46:38.282Z,6.00
2023-05-21T11:47:38.437Z,6.60
2023-05-21T11:48:38.639Z,6.20
2023-05-21T11:49:38.820Z,6.30
2023-05-21T11:50:39.294Z,5.90
2023-05-21T11:51:39.176Z,5.90
2023-05-21T11:52:39.303Z,5.70
2023-05-21T11:53:39.487Z,6.00
2023-05-21T11:54:39.657Z,5.80
2023-05-21T11:55:39.809Z,6.20
2023-05-21T11:56:39.966Z,6.40
2023-05-21T11:57:40.141Z,6.20
2023-05-21T11:58:40.314Z,6.10
2023-05-21T11:59:40.483Z,5.70
2023-05-21T12:00:40.671Z,5.90
2023-05-21T12:01:40.821Z,5.70
2023-05-21T12:02:41.047Z,5.70
2023-05-21T12:03:41.242Z,5.40
2023-05-21T12:04:41.371Z,5.50
2023-05-21T12:05:41.579Z,5.80
2023-05-21T12:06:41.700Z,5.70
2023-05-21T12:07:41.870Z,5.70
2023-05-21T12:08:42.035Z,5.70
2023-05-21T12:09:42.229Z,5.70
2023-05-21T12:10:43.851Z,5.80
2023-05-21T12:11:42.548Z,5.30
2023-05-21T12:12:53.837Z,5.70
2023-05-21T12:13:44.033Z,5.70
2023-05-21T12:14:43.112Z,5.60
2023-05-21T12:15:43.293Z,5.70
2023-05-21T12:16:43.485Z,5.40
2023-05-21T12:17:43.648Z,5.40
2023-05-21T12:18:43.845Z,5.10
2023-05-21T12:19:43.961Z,5.90
2023-05-21T12:20:44.109Z,5.50
2023-05-21T12:21:44.322Z,5.40
2023-05-21T12:22:44.480Z,5.50
2023-05-21T12:23:44.660Z,5.30
2023-05-21T12:24:44.858Z,5.60
2023-05-21T12:25:45.030Z,5.70
2023-05-21T12:26:45.182Z,5.50
2023-05-21T12:27:45.369Z,5.50
2023-05-21T12:28:45.538Z,5.50
2023-05-21T12:29:45.761Z,5.50
2023-05-21T12:30:45.868Z,5.00
2023-05-21T12:31:46.064Z,5.70
2023-05-21T12:32:46.266Z,5.10
2023-05-21T12:33:46.402Z,5.70
2023-05-21T12:34:46.615Z,5.50
2023-05-21T12:35:46.939Z,5.20
2023-05-21T12:36:46.933Z,5.30
2023-05-21T12:37:47.104Z,5.60
2023-05-21T12:38:47.254Z,5.20
2023-05-21T12:39:47.459Z,5.10
2023-05-21T12:40:47.599Z,5.30
2023-05-21T12:41:47.767Z,5.30
2023-05-21T12:42:47.940Z,4.90
2023-05-21T12:43:48.114Z,5.50
2023-05-21T12:44:48.323Z,5.00
2023-05-21T12:45:48.520Z,5.20
2023-05-21T12:46:48.685Z,5.20
2023-05-21T12:47:48.943Z,5.30
2023-05-21T12:48:49.024Z,5.00
2023-05-21T12:49:49.177Z,5.30
2023-05-21T12:50:49.345Z,5.10
2023-05-21T12:51:49.482Z,4.90
2023-05-21T12:52:49.668Z,5.30
2023-05-21T12:53:49.813Z,5.30
2023-05-21T12:54:49.988Z,5.10
2023-05-21T12:55:50.144Z,5.10
2023-05-21T12:56:50.350Z,5.30
2023-05-21T12:57:50.500Z,5.30
2023-05-21T12:58:50.722Z,4.80
2023-05-21T12:59:50.888Z,5.20
2023-05-21T13:00:51.060Z,4.90
2023-05-21T13:01:51.249Z,4.90
2023-05-21T13:02:51.463Z,5.00
2023-05-21T13:03:51.613Z,4.80
2023-05-21T13:04:51.759Z,5.30
2023-05-21T13:05:51.943Z,4.70